sensor_id;sensor_type;location;lat;lon;timestamp;P1;durP1;ratioP1;P2;durP2;ratioP2
12721;SDS011;6425;50.316;8.114;2023-09-30T00:00:00;11.3;;;5.7;;
12721;SDS011;6425;50.316;8.114;2023-09-30T00:03:00;9.7;;;5.4;;
12721;SDS011;6425;50.316;8.114;2023-09-30T00:06:00;9.7;;;5.4;;
12721;SDS011;6425;50.316;8.114;2023-09-30T00:09:00;9.6;;;4.4;;
12721;SDS011;6425;50.316;8.114;2023-09-30T00:12:00;9.6;;;4.8;;
12721;SDS011;6425;50.316;8.114;2023-09-30T00:15:00;9.6;;;4.8;;
12721;SDS011;6425;50.316;8.114;2023-09-30T00:18:00;11.5;;;4.6;;
12721;SDS011;6425;50.316;8.114;2023-09-30T00:21:00;11.5;;;4.6;;
12721;SDS011;6425;50.316;8.114;2023-09-30T00:24:00;15.2;;;5.5;;
12721;SDS011;6425;50.316;8.114;2023-09-30T00:27:00;12.3;;;4.8;;
12721;SDS011;6425;50.316;8.114;2023-09-30T00:30:00;12.3;;;4.8;;
12721;SDS011;6425;50.316;8.114;2023-09-30T00:33:00;11.4;;;5.4;;
12721;SDS011;6425;50.316;8.114;2023-09-30T00:36:05;11.4;;;5.4;;
12721;SDS011;6425;50.316;8.114;2023-09-30T00:39:00;14.5;;;5.7;;
12721;SDS011;6425;50.316;8.114;2023-09-30T00:42:00;11.8;;;5.7;;
12721;SDS011;6425;50.316;8.114;2023-09-30T00:45:00;11.8;;;5.7;;
12721;SDS011;6425;50.316;8.114;2023-09-30T00:48:00;17.1;;;5.8;;
12721;SDS011;6425;50.316;8.114;2023-09-30T00:51:00;17.1;;;5.8;;
12721;SDS011;6425;50.316;8.114;2023-09-30T00:54:00;16.2;;;6.1;;
12721;SDS011;6425;50.316;8.114;2023-09-30T00:57:00;13.4;;;6.1;;
12721;SDS011;6425;50.316;8.114;2023-09-30T01:00:00;13.4;;;6.1;;
12721;SDS011;6425;50.316;8.114;2023-09-30T01:03:00;15.9;;;6.6;;
12721;SDS011;6425;50.316;8.114;2023-09-30T01:06:00;16.3;;;6.4;;
12721;SDS011;6425;50.316;8.114;2023-09-30T01:09:00;16.5;;;6.4;;
12721;SDS011;6425;50.316;8.114;2023-09-30T01:12:00;17.1;;;7.4;;
12721;SDS011;6425;50.316;8.114;2023-09-30T01:15:00;17.1;;;7.4;;
12721;SDS011;6425;50.316;8.114;2023-09-30T01:18:00;20.4;;;9.8;;
12721;SDS011;6425;50.316;8.114;2023-09-30T01:21:01;17;;;7.2;;
12721;SDS011;6425;50.316;8.114;2023-09-30T01:24:00;17;;;7.2;;
12721;SDS011;6425;50.316;8.114;2023-09-30T01:27:00;16.7;;;8.5;;
12721;SDS011;6425;50.316;8.114;2023-09-30T01:30:00;16.7;;;8.5;;
12721;SDS011;6425;50.316;8.114;2023-09-30T01:33:00;19.3;;;7.4;;
12721;SDS011;6425;50.316;8.114;2023-09-30T01:36:00;14.5;;;7.3;;
12721;SDS011;6425;50.316;8.114;2023-09-30T01:39:00;14.5;;;7.3;;
12721;SDS011;6425;50.316;8.114;2023-09-30T01:42:00;15.2;;;7;;
12721;SDS011;6425;50.316;8.114;2023-09-30T01:45:00;15.2;;;7;;
12721;SDS011;6425;50.316;8.114;2023-09-30T01:48:00;15.1;;;7.1;;
12721;SDS011;6425;50.316;8.114;2023-09-30T01:51:00;14;;;6.3;;
12721;SDS011;6425;50.316;8.114;2023-09-30T01:54:00;14;;;6.3;;
12721;SDS011;6425;50.316;8.114;2023-09-30T01:57:00;15.8;;;6.4;;
12721;SDS011;6425;50.316;8.114;2023-09-30T02:00:00;15.8;;;6.4;;
12721;SDS011;6425;50.316;8.114;2023-09-30T02:03:00;15.8;;;6.6;;
12721;SDS011;6425;50.316;8.114;2023-09-30T02:06:00;12.3;;;6.4;;
12721;SDS011;6425;50.316;8.114;2023-09-30T02:09:00;12.3;;;6.4;;
12721;SDS011;6425;50.316;8.114;2023-09-30T02:12:00;16.3;;;7;;
12721;SDS011;6425;50.316;8.114;2023-09-30T02:15:00;16.3;;;7;;
12721;SDS011;6425;50.316;8.114;2023-09-30T02:18:00;14.4;;;6.4;;
12721;SDS011;6425;50.316;8.114;2023-09-30T02:21:00;15;;;6.8;;
12721;SDS011;6425;50.316;8.114;2023-09-30T02:24:00;15;;;6.8;;
12721;SDS011;6425;50.316;8.114;2023-09-30T02:27:00;11.2;;;6.2;;
12721;SDS011;6425;50.316;8.114;2023-09-30T02:30:00;11.2;;;6.2;;
12721;SDS011;6425;50.316;8.114;2023-09-30T02:33:00;14.3;;;6.2;;
12721;SDS011;6425;50.316;8.114;2023-09-30T02:36:00;13.7;;;7;;
12721;SDS011;6425;50.316;8.114;2023-09-30T02:39:00;13.7;;;7;;
12721;SDS011;6425;50.316;8.114;2023-09-30T02:42:00;15.3;;;7;;
12721;SDS011;6425;50.316;8.114;2023-09-30T02:45:00;15.3;;;7;;
12721;SDS011;6425;50.316;8.114;2023-09-30T02:48:00;18.9;;;7;;
12721;SDS011;6425;50.316;8.114;2023-09-30T02:51:00;18.1;;;7.6;;
12721;SDS011;6425;50.316;8.114;2023-09-30T02:54:00;18.1;;;7.6;;
12721;SDS011;6425;50.316;8.114;2023-09-30T02:57:00;17.3;;;7.6;;
12721;SDS011;6425;50.316;8.114;2023-09-30T03:00:00;17.3;;;7.6;;
12721;SDS011;6425;50.316;8.114;2023-09-30T03:03:00;16.9;;;7.7;;
12721;SDS011;6425;50.316;8.114;2023-09-30T03:06:00;14.5;;;6.7;;
12721;SDS011;6425;50.316;8.114;2023-09-30T03:09:00;14.5;;;6.7;;
12721;SDS011;6425;50.316;8.114;2023-09-30T03:12:00;15;;;7.5;;
12721;SDS011;6425;50.316;8.114;2023-09-30T03:15:00;15;;;7.5;;
12721;SDS011;6425;50.316;8.114;2023-09-30T03:18:00;16.2;;;7;;
12721;SDS011;6425;50.316;8.114;2023-09-30T03:21:00;14.9;;;6.5;;
12721;SDS011;6425;50.316;8.114;2023-09-30T03:24:00;14.9;;;6.5;;
12721;SDS011;6425;50.316;8.114;2023-09-30T03:27:00;12.3;;;6.7;;
12721;SDS011;6425;50.316;8.114;2023-09-30T03:30:00;12.3;;;6.7;;
12721;SDS011;6425;50.316;8.114;2023-09-30T03:33:00;16.5;;;6.6;;
12721;SDS011;6425;50.316;8.114;2023-09-30T03:36:00;13;;;6.8;;
12721;SDS011;6425;50.316;8.114;2023-09-30T03:39:00;13;;;6.8;;
12721;SDS011;6425;50.316;8.114;2023-09-30T03:42:00;13;;;6.2;;
12721;SDS011;6425;50.316;8.114;2023-09-30T03:45:00;13;;;6.2;;
12721;SDS011;6425;50.316;8.114;2023-09-30T03:48:00;13.6;;;7;;
12721;SDS011;6425;50.316;8.114;2023-09-30T03:51:07;19.1;;;7.5;;
12721;SDS011;6425;50.316;8.114;2023-09-30T03:54:00;19.1;;;7.5;;
12721;SDS011;6425;50.316;8.114;2023-09-30T03:57:00;17.5;;;7.5;;
12721;SDS011;6425;50.316;8.114;2023-09-30T04:00:00;17.5;;;7.5;;
12721;SDS011;6425;50.316;8.114;2023-09-30T04:03:00;14;;;7.3;;
12721;SDS011;6425;50.316;8.114;2023-09-30T04:06:00;18;;;8.4;;
12721;SDS011;6425;50.316;8.114;2023-09-30T04:09:00;18;;;8.4;;
12721;SDS011;6425;50.316;8.114;2023-09-30T04:12:00;16.3;;;7.5;;
12721;SDS011;6425;50.316;8.114;2023-09-30T04:15:00;16.3;;;7.5;;
12721;SDS011;6425;50.316;8.114;2023-09-30T04:18:00;14.5;;;7.3;;
12721;SDS011;6425;50.316;8.114;2023-09-30T04:21:00;16.2;;;7.2;;
12721;SDS011;6425;50.316;8.114;2023-09-30T04:24:00;16.2;;;7.2;;
12721;SDS011;6425;50.316;8.114;2023-09-30T04:27:00;18.2;;;7.9;;
12721;SDS011;6425;50.316;8.114;2023-09-30T04:30:00;18.2;;;7.9;;
12721;SDS011;6425;50.316;8.114;2023-09-30T04:33:00;19.4;;;8;;
12721;SDS011;6425;50.316;8.114;2023-09-30T04:36:00;16.7;;;6.9;;
12721;SDS011;6425;50.316;8.114;2023-09-30T04:39:00;16.7;;;6.9;;
12721;SDS011;6425;50.316;8.114;2023-09-30T04:42:00;20;;;7.4;;
12721;SDS011;6425;50.316;8.114;2023-09-30T04:45:00;20;;;7.4;;
12721;SDS011;6425;50.316;8.114;2023-09-30T04:48:00;20.6;;;8.4;;
12721;SDS011;6425;50.316;8.114;2023-09-30T04:51:00;15;;;7.3;;
12721;SDS011;6425;50.316;8.114;2023-09-30T04:54:00;15;;;7.3;;
12721;SDS011;6425;50.316;8.114;2023-09-30T04:57:00;16.9;;;7.1;;
12721;SDS011;6425;50.316;8.114;2023-09-30T05:00:00;15.9;;;6.8;;
12721;SDS011;6425;50.316;8.114;2023-09-30T05:03:00;15.9;;;6.8;;
12721;SDS011;6425;50.316;8.114;2023-09-30T05:06:00;14.7;;;7;;
12721;SDS011;6425;50.316;8.114;2023-09-30T05:09:00;14.7;;;7;;
12721;SDS011;6425;50.316;8.114;2023-09-30T05:12:00;16.6;;;6.7;;
12721;SDS011;6425;50.316;8.114;2023-09-30T05:15:00;19.3;;;7;;
12721;SDS011;6425;50.316;8.114;2023-09-30T05:18:00;19.3;;;7;;
12721;SDS011;6425;50.316;8.114;2023-09-30T05:21:00;19.5;;;7.1;;
12721;SDS011;6425;50.316;8.114;2023-09-30T05:24:00;19.5;;;7.1;;
12721;SDS011;6425;50.316;8.114;2023-09-30T05:27:00;16.3;;;7.2;;
12721;SDS011;6425;50.316;8.114;2023-09-30T05:30:00;19.9;;;7.5;;
12721;SDS011;6425;50.316;8.114;2023-09-30T05:33:00;19.9;;;7.5;;
12721;SDS011;6425;50.316;8.114;2023-09-30T05:36:00;23.3;;;7.1;;
12721;SDS011;6425;50.316;8.114;2023-09-30T05:39:00;23.3;;;7.1;;
12721;SDS011;6425;50.316;8.114;2023-09-30T05:42:00;19.5;;;7.3;;
12721;SDS011;6425;50.316;8.114;2023-09-30T05:45:00;15.7;;;6.9;;
12721;SDS011;6425;50.316;8.114;2023-09-30T05:48:01;15.7;;;6.9;;
12721;SDS011;6425;50.316;8.114;2023-09-30T05:51:00;17.5;;;6.6;;
12721;SDS011;6425;50.316;8.114;2023-09-30T05:54:00;17.5;;;6.6;;
12721;SDS011;6425;50.316;8.114;2023-09-30T05:57:00;16.3;;;6.2;;
12721;SDS011;6425;50.316;8.114;2023-09-30T06:00:00;14;;;6.1;;
12721;SDS011;6425;50.316;8.114;2023-09-30T06:03:00;14;;;6.1;;
12721;SDS011;6425;50.316;8.114;2023-09-30T06:06:00;15.2;;;6.4;;
12721;SDS011;6425;50.316;8.114;2023-09-30T06:09:00;15.2;;;6.4;;
12721;SDS011;6425;50.316;8.114;2023-09-30T06:12:00;13.2;;;6;;
12721;SDS011;6425;50.316;8.114;2023-09-30T06:15:00;15;;;5.9;;
12721;SDS011;6425;50.316;8.114;2023-09-30T06:18:00;15;;;5.9;;
12721;SDS011;6425;50.316;8.114;2023-09-30T06:21:00;14.1;;;5.8;;
12721;SDS011;6425;50.316;8.114;2023-09-30T06:24:00;14.1;;;5.8;;
12721;SDS011;6425;50.316;8.114;2023-09-30T06:27:00;12.5;;;6.9;;
12721;SDS011;6425;50.316;8.114;2023-09-30T06:30:00;18.6;;;7.9;;
12721;SDS011;6425;50.316;8.114;2023-09-30T06:33:00;18.6;;;7.9;;
12721;SDS011;6425;50.316;8.114;2023-09-30T06:36:00;14.1;;;5.9;;
12721;SDS011;6425;50.316;8.114;2023-09-30T06:39:00;14.1;;;5.9;;
12721;SDS011;6425;50.316;8.114;2023-09-30T06:42:00;14.8;;;6.5;;
12721;SDS011;6425;50.316;8.114;2023-09-30T06:45:00;19.3;;;8.3;;
12721;SDS011;6425;50.316;8.114;2023-09-30T06:48:00;19.3;;;8.3;;
12721;SDS011;6425;50.316;8.114;2023-09-30T06:51:00;24.3;;;9.5;;
12721;SDS011;6425;50.316;8.114;2023-09-30T06:54:00;24.3;;;9.5;;
12721;SDS011;6425;50.316;8.114;2023-09-30T06:57:00;23.5;;;9.3;;
12721;SDS011;6425;50.316;8.114;2023-09-30T07:00:00;20.6;;;8.3;;
12721;SDS011;6425;50.316;8.114;2023-09-30T07:03:00;20.6;;;8.3;;
12721;SDS011;6425;50.316;8.114;2023-09-30T07:06:00;19.2;;;8.4;;
12721;SDS011;6425;50.316;8.114;2023-09-30T07:09:00;19.2;;;8.4;;
12721;SDS011;6425;50.316;8.114;2023-09-30T07:12:00;21.8;;;10.5;;
12721;SDS011;6425;50.316;8.114;2023-09-30T07:15:00;23.9;;;10.9;;
12721;SDS011;6425;50.316;8.114;2023-09-30T07:18:00;23.9;;;10.9;;
12721;SDS011;6425;50.316;8.114;2023-09-30T07:21:00;21;;;10.3;;
12721;SDS011;6425;50.316;8.114;2023-09-30T07:24:00;21;;;10.3;;
12721;SDS011;6425;50.316;8.114;2023-09-30T07:27:00;22.6;;;11.8;;
12721;SDS011;6425;50.316;8.114;2023-09-30T07:30:00;24;;;11.7;;
12721;SDS011;6425;50.316;8.114;2023-09-30T07:33:00;24;;;11.7;;
12721;SDS011;6425;50.316;8.114;2023-09-30T07:36:00;29.6;;;10.9;;
12721;SDS011;6425;50.316;8.114;2023-09-30T07:39:00;29.6;;;10.9;;
12721;SDS011;6425;50.316;8.114;2023-09-30T07:42:00;46.7;;;10.6;;
12721;SDS011;6425;50.316;8.114;2023-09-30T07:45:00;36.2;;;12;;
12721;SDS011;6425;50.316;8.114;2023-09-30T07:48:00;36.2;;;12;;
12721;SDS011;6425;50.316;8.114;2023-09-30T07:51:00;29.5;;;13.7;;
12721;SDS011;6425;50.316;8.114;2023-09-30T07:54:00;29.5;;;13.7;;
12721;SDS011;6425;50.316;8.114;2023-09-30T07:57:00;34.5;;;12.3;;
12721;SDS011;6425;50.316;8.114;2023-09-30T08:00:00;39.9;;;14.7;;
12721;SDS011;6425;50.316;8.114;2023-09-30T08:03:00;39.9;;;14.7;;
12721;SDS011;6425;50.316;8.114;2023-09-30T08:06:00;37.9;;;15.9;;
12721;SDS011;6425;50.316;8.114;2023-09-30T08:09:00;37.9;;;15.9;;
12721;SDS011;6425;50.316;8.114;2023-09-30T08:12:00;48.9;;;19.1;;
12721;SDS011;6425;50.316;8.114;2023-09-30T08:15:00;45.6;;;19.9;;
12721;SDS011;6425;50.316;8.114;2023-09-30T08:18:00;45.6;;;19.9;;
12721;SDS011;6425;50.316;8.114;2023-09-30T08:21:00;58.9;;;25.4;;
12721;SDS011;6425;50.316;8.114;2023-09-30T08:24:01;58.9;;;25.4;;
12721;SDS011;6425;50.316;8.114;2023-09-30T08:27:00;51.8;;;24.3;;
12721;SDS011;6425;50.316;8.114;2023-09-30T08:30:00;42.1;;;22.3;;
12721;SDS011;6425;50.316;8.114;2023-09-30T08:33:00;42.1;;;22.3;;
12721;SDS011;6425;50.316;8.114;2023-09-30T08:36:01;41.4;;;21.5;;
12721;SDS011;6425;50.316;8.114;2023-09-30T08:39:00;41.7;;;22.9;;
12721;SDS011;6425;50.316;8.114;2023-09-30T08:42:00;41.7;;;22.9;;
12721;SDS011;6425;50.316;8.114;2023-09-30T08:45:00;38;;;20.8;;
12721;SDS011;6425;50.316;8.114;2023-09-30T08:48:00;38;;;20.8;;
12721;SDS011;6425;50.316;8.114;2023-09-30T08:51:00;37.6;;;22.1;;
12721;SDS011;6425;50.316;8.114;2023-09-30T08:54:00;35.4;;;20.1;;
12721;SDS011;6425;50.316;8.114;2023-09-30T08:57:00;35.4;;;20.1;;
12721;SDS011;6425;50.316;8.114;2023-09-30T09:00:00;32.8;;;19;;
12721;SDS011;6425;50.316;8.114;2023-09-30T09:03:00;32.8;;;19;;
12721;SDS011;6425;50.316;8.114;2023-09-30T09:06:00;32.2;;;20.1;;
12721;SDS011;6425;50.316;8.114;2023-09-30T09:09:12;34.5;;;19.6;;
12721;SDS011;6425;50.316;8.114;2023-09-30T09:12:00;34.5;;;19.6;;
12721;SDS011;6425;50.316;8.114;2023-09-30T09:15:00;37.8;;;22.8;;
12721;SDS011;6425;50.316;8.114;2023-09-30T09:18:00;37.8;;;22.8;;
12721;SDS011;6425;50.316;8.114;2023-09-30T09:21:07;40.6;;;22.4;;
12721;SDS011;6425;50.316;8.114;2023-09-30T09:24:00;39.5;;;21.2;;
12721;SDS011;6425;50.316;8.114;2023-09-30T09:27:03;39.5;;;21.2;;
12721;SDS011;6425;50.316;8.114;2023-09-30T09:30:13;27.3;;;15.9;;
12721;SDS011;6425;50.316;8.114;2023-09-30T09:33:00;27.3;;;15.9;;
12721;SDS011;6425;50.316;8.114;2023-09-30T09:36:00;24.5;;;14.4;;
12721;SDS011;6425;50.316;8.114;2023-09-30T09:39:00;31.1;;;16.5;;
12721;SDS011;6425;50.316;8.114;2023-09-30T09:42:00;31.1;;;16.5;;
12721;SDS011;6425;50.316;8.114;2023-09-30T09:45:00;25.9;;;13.2;;
12721;SDS011;6425;50.316;8.114;2023-09-30T09:48:00;25.9;;;13.2;;
12721;SDS011;6425;50.316;8.114;2023-09-30T09:51:00;26.8;;;15.1;;
12721;SDS011;6425;50.316;8.114;2023-09-30T09:54:00;24.7;;;15;;
12721;SDS011;6425;50.316;8.114;2023-09-30T09:57:00;24.7;;;15;;
12721;SDS011;6425;50.316;8.114;2023-09-30T10:00:00;29.9;;;16.6;;
12721;SDS011;6425;50.316;8.114;2023-09-30T10:03:00;29.9;;;16.6;;
12721;SDS011;6425;50.316;8.114;2023-09-30T10:06:00;25.2;;;15.3;;
12721;SDS011;6425;50.316;8.114;2023-09-30T10:09:00;28.9;;;16.2;;
12721;SDS011;6425;50.316;8.114;2023-09-30T10:12:00;28.9;;;16.2;;
12721;SDS011;6425;50.316;8.114;2023-09-30T10:15:00;25.6;;;16;;
12721;SDS011;6425;50.316;8.114;2023-09-30T10:18:00;25.6;;;16;;
12721;SDS011;6425;50.316;8.114;2023-09-30T10:21:06;26.3;;;15.7;;
12721;SDS011;6425;50.316;8.114;2023-09-30T10:24:23;24.5;;;14.1;;
12721;SDS011;6425;50.316;8.114;2023-09-30T10:28:31;24.5;;;14.1;;
12721;SDS011;6425;50.316;8.114;2023-09-30T10:30:05;21.6;;;12.9;;
12721;SDS011;6425;50.316;8.114;2023-09-30T10:33:07;21.6;;;12.9;;
12721;SDS011;6425;50.316;8.114;2023-09-30T10:36:00;23.4;;;12.4;;
12721;SDS011;6425;50.316;8.114;2023-09-30T10:39:00;18.9;;;9.4;;
12721;SDS011;6425;50.316;8.114;2023-09-30T10:42:00;18.9;;;9.4;;
12721;SDS011;6425;50.316;8.114;2023-09-30T10:45:00;18;;;10.5;;
12721;SDS011;6425;50.316;8.114;2023-09-30T10:48:03;18;;;10.5;;
12721;SDS011;6425;50.316;8.114;2023-09-30T10:51:00;14;;;7.7;;
12721;SDS011;6425;50.316;8.114;2023-09-30T10:54:00;14.5;;;8;;
12721;SDS011;6425;50.316;8.114;2023-09-30T10:57:00;14.5;;;8;;
12721;SDS011;6425;50.316;8.114;2023-09-30T11:00:08;12.7;;;6;;
12721;SDS011;6425;50.316;8.114;2023-09-30T11:03:00;12.7;;;6;;
12721;SDS011;6425;50.316;8.114;2023-09-30T11:06:00;17.4;;;8.5;;
12721;SDS011;6425;50.316;8.114;2023-09-30T11:09:00;20.1;;;10.8;;
12721;SDS011;6425;50.316;8.114;2023-09-30T11:12:00;20.1;;;10.8;;
12721;SDS011;6425;50.316;8.114;2023-09-30T11:15:00;16;;;8.7;;
12721;SDS011;6425;50.316;8.114;2023-09-30T11:18:12;16;;;8.7;;
12721;SDS011;6425;50.316;8.114;2023-09-30T11:21:03;20.1;;;11.6;;
12721;SDS011;6425;50.316;8.114;2023-09-30T11:24:00;15;;;7.4;;
12721;SDS011;6425;50.316;8.114;2023-09-30T11:27:00;15;;;7.4;;
12721;SDS011;6425;50.316;8.114;2023-09-30T11:30:02;19;;;10.2;;
12721;SDS011;6425;50.316;8.114;2023-09-30T11:33:00;19;;;10.2;;
12721;SDS011;6425;50.316;8.114;2023-09-30T11:36:00;16.1;;;9.2;;
12721;SDS011;6425;50.316;8.114;2023-09-30T11:39:00;13;;;6.8;;
12721;SDS011;6425;50.316;8.114;2023-09-30T11:42:00;13;;;6.8;;
12721;SDS011;6425;50.316;8.114;2023-09-30T11:45:00;9.9;;;4.4;;
12721;SDS011;6425;50.316;8.114;2023-09-30T11:48:00;9.9;;;4.4;;
12721;SDS011;6425;50.316;8.114;2023-09-30T11:51:00;11.9;;;7.1;;
12721;SDS011;6425;50.316;8.114;2023-09-30T11:54:00;14;;;8.1;;
12721;SDS011;6425;50.316;8.114;2023-09-30T11:57:00;14;;;8.1;;
12721;SDS011;6425;50.316;8.114;2023-09-30T12:00:00;13.1;;;6;;
12721;SDS011;6425;50.316;8.114;2023-09-30T12:03:00;13.1;;;6;;
12721;SDS011;6425;50.316;8.114;2023-09-30T12:06:00;12.4;;;6;;
12721;SDS011;6425;50.316;8.114;2023-09-30T12:09:00;10;;;5.2;;
12721;SDS011;6425;50.316;8.114;2023-09-30T12:12:00;10;;;5.2;;
12721;SDS011;6425;50.316;8.114;2023-09-30T12:15:00;10.1;;;3.9;;
12721;SDS011;6425;50.316;8.114;2023-09-30T12:18:00;10.1;;;3.9;;
12721;SDS011;6425;50.316;8.114;2023-09-30T12:21:00;9.6;;;4.8;;
12721;SDS011;6425;50.316;8.114;2023-09-30T12:24:00;11.5;;;5.4;;
12721;SDS011;6425;50.316;8.114;2023-09-30T12:27:00;11.5;;;5.4;;
12721;SDS011;6425;50.316;8.114;2023-09-30T12:30:00;10.7;;;5.7;;
12721;SDS011;6425;50.316;8.114;2023-09-30T12:33:00;10.7;;;5.7;;
12721;SDS011;6425;50.316;8.114;2023-09-30T12:36:00;8.6;;;4.6;;
12721;SDS011;6425;50.316;8.114;2023-09-30T12:39:00;7.1;;;4.4;;
12721;SDS011;6425;50.316;8.114;2023-09-30T12:42:00;7.1;;;4.4;;
12721;SDS011;6425;50.316;8.114;2023-09-30T12:45:00;9.2;;;4.6;;
12721;SDS011;6425;50.316;8.114;2023-09-30T12:48:00;9.2;;;4.6;;
12721;SDS011;6425;50.316;8.114;2023-09-30T12:51:00;9.2;;;4.6;;
12721;SDS011;6425;50.316;8.114;2023-09-30T12:54:00;8.6;;;4.3;;
12721;SDS011;6425;50.316;8.114;2023-09-30T12:57:00;8.6;;;4.3;;
12721;SDS011;6425;50.316;8.114;2023-09-30T13:00:00;7.7;;;4;;
12721;SDS011;6425;50.316;8.114;2023-09-30T13:03:00;7.7;;;4;;
12721;SDS011;6425;50.316;8.114;2023-09-30T13:06:00;8.1;;;3.6;;
12721;SDS011;6425;50.316;8.114;2023-09-30T13:09:00;6.6;;;3.6;;
12721;SDS011;6425;50.316;8.114;2023-09-30T13:12:00;6.6;;;3.6;;
12721;SDS011;6425;50.316;8.114;2023-09-30T13:15:00;5.1;;;3;;
12721;SDS011;6425;50.316;8.114;2023-09-30T13:18:00;5.1;;;2.9;;
12721;SDS011;6425;50.316;8.114;2023-09-30T13:21:00;5.3;;;2.8;;
12721;SDS011;6425;50.316;8.114;2023-09-30T13:24:00;5.7;;;2.8;;
12721;SDS011;6425;50.316;8.114;2023-09-30T13:27:00;5.7;;;2.8;;
12721;SDS011;6425;50.316;8.114;2023-09-30T13:30:00;6.9;;;2.8;;
12721;SDS011;6425;50.316;8.114;2023-09-30T13:33:00;5.4;;;2.9;;
12721;SDS011;6425;50.316;8.114;2023-09-30T13:36:00;4.9;;;3;;
12721;SDS011;6425;50.316;8.114;2023-09-30T13:39:00;6.5;;;3;;
12721;SDS011;6425;50.316;8.114;2023-09-30T13:42:00;6.5;;;3;;
12721;SDS011;6425;50.316;8.114;2023-09-30T13:45:00;6.4;;;3;;
12721;SDS011;6425;50.316;8.114;2023-09-30T13:48:00;5.9;;;2.9;;
12721;SDS011;6425;50.316;8.114;2023-09-30T13:51:03;5.9;;;2.9;;
12721;SDS011;6425;50.316;8.114;2023-09-30T13:54:00;5.1;;;3;;
12721;SDS011;6425;50.316;8.114;2023-09-30T13:57:00;5.1;;;3;;
12721;SDS011;6425;50.316;8.114;2023-09-30T14:00:00;5.6;;;2.9;;
12721;SDS011;6425;50.316;8.114;2023-09-30T14:03:00;6.6;;;3.1;;
12721;SDS011;6425;50.316;8.114;2023-09-30T14:06:00;6.6;;;3.1;;
12721;SDS011;6425;50.316;8.114;2023-09-30T14:09:00;8.5;;;3;;
12721;SDS011;6425;50.316;8.114;2023-09-30T14:12:00;8.5;;;3;;
12721;SDS011;6425;50.316;8.114;2023-09-30T14:15:00;6.3;;;3.2;;
12721;SDS011;6425;50.316;8.114;2023-09-30T14:18:00;5.9;;;3;;
12721;SDS011;6425;50.316;8.114;2023-09-30T14:21:00;5.9;;;3;;
12721;SDS011;6425;50.316;8.114;2023-09-30T14:24:00;7.3;;;3;;
12721;SDS011;6425;50.316;8.114;2023-09-30T14:27:00;7.3;;;3;;
12721;SDS011;6425;50.316;8.114;2023-09-30T14:30:00;5.5;;;3.1;;
12721;SDS011;6425;50.316;8.114;2023-09-30T14:33:00;5.7;;;3.1;;
12721;SDS011;6425;50.316;8.114;2023-09-30T14:36:00;5.7;;;3.1;;
12721;SDS011;6425;50.316;8.114;2023-09-30T14:39:00;5;;;2.6;;
12721;SDS011;6425;50.316;8.114;2023-09-30T14:42:00;5;;;2.6;;
12721;SDS011;6425;50.316;8.114;2023-09-30T14:45:00;4.8;;;3;;
12721;SDS011;6425;50.316;8.114;2023-09-30T14:48:00;5.5;;;3.1;;
12721;SDS011;6425;50.316;8.114;2023-09-30T14:51:00;5.5;;;3.1;;
12721;SDS011;6425;50.316;8.114;2023-09-30T14:54:00;5;;;2.9;;
12721;SDS011;6425;50.316;8.114;2023-09-30T14:57:00;5;;;2.9;;
12721;SDS011;6425;50.316;8.114;2023-09-30T15:00:00;5.1;;;3.1;;
12721;SDS011;6425;50.316;8.114;2023-09-30T15:03:00;5;;;2.8;;
12721;SDS011;6425;50.316;8.114;2023-09-30T15:06:00;5;;;2.8;;
12721;SDS011;6425;50.316;8.114;2023-09-30T15:09:00;5.6;;;3.1;;
12721;SDS011;6425;50.316;8.114;2023-09-30T15:12:00;5.6;;;3.1;;
12721;SDS011;6425;50.316;8.114;2023-09-30T15:15:00;7.6;;;3.7;;
12721;SDS011;6425;50.316;8.114;2023-09-30T15:18:00;8;;;3.6;;
12721;SDS011;6425;50.316;8.114;2023-09-30T15:21:00;8;;;3.6;;
12721;SDS011;6425;50.316;8.114;2023-09-30T15:24:00;7.4;;;3.7;;
12721;SDS011;6425;50.316;8.114;2023-09-30T15:27:00;7.4;;;3.7;;
12721;SDS011;6425;50.316;8.114;2023-09-30T15:30:00;6.6;;;3.3;;
12721;SDS011;6425;50.316;8.114;2023-09-30T15:33:00;7.3;;;3.7;;
12721;SDS011;6425;50.316;8.114;2023-09-30T15:36:06;7.3;;;3.7;;
12721;SDS011;6425;50.316;8.114;2023-09-30T15:39:00;6.6;;;4.1;;
12721;SDS011;6425;50.316;8.114;2023-09-30T15:42:00;6.6;;;4.1;;
12721;SDS011;6425;50.316;8.114;2023-09-30T15:45:00;6.8;;;4.1;;
12721;SDS011;6425;50.316;8.114;2023-09-30T15:48:00;7.4;;;3.5;;
12721;SDS011;6425;50.316;8.114;2023-09-30T15:51:00;7.4;;;3.5;;
12721;SDS011;6425;50.316;8.114;2023-09-30T15:54:00;6.8;;;4.3;;
12721;SDS011;6425;50.316;8.114;2023-09-30T15:57:00;6.8;;;4.3;;
12721;SDS011;6425;50.316;8.114;2023-09-30T16:00:00;8.7;;;4.2;;
12721;SDS011;6425;50.316;8.114;2023-09-30T16:03:00;6.6;;;3.8;;
12721;SDS011;6425;50.316;8.114;2023-09-30T16:06:03;6.6;;;3.8;;
12721;SDS011;6425;50.316;8.114;2023-09-30T16:09:00;8.3;;;4.4;;
12721;SDS011;6425;50.316;8.114;2023-09-30T16:12:00;8.3;;;4.4;;
12721;SDS011;6425;50.316;8.114;2023-09-30T16:15:00;5.2;;;3.2;;
12721;SDS011;6425;50.316;8.114;2023-09-30T16:18:00;6.9;;;3.6;;
12721;SDS011;6425;50.316;8.114;2023-09-30T16:21:00;6.9;;;3.6;;
12721;SDS011;6425;50.316;8.114;2023-09-30T16:24:00;7.3;;;3.7;;
12721;SDS011;6425;50.316;8.114;2023-09-30T16:27:00;7.3;;;3.7;;
12721;SDS011;6425;50.316;8.114;2023-09-30T16:30:00;6.9;;;4.3;;
12721;SDS011;6425;50.316;8.114;2023-09-30T16:33:00;5.3;;;3.7;;
12721;SDS011;6425;50.316;8.114;2023-09-30T16:36:00;5.3;;;3.7;;
12721;SDS011;6425;50.316;8.114;2023-09-30T16:39:00;7;;;3.2;;
12721;SDS011;6425;50.316;8.114;2023-09-30T16:42:00;7;;;3.2;;
12721;SDS011;6425;50.316;8.114;2023-09-30T16:45:00;8.1;;;3.4;;
12721;SDS011;6425;50.316;8.114;2023-09-30T16:48:00;9.2;;;3.8;;
12721;SDS011;6425;50.316;8.114;2023-09-30T16:51:00;9.2;;;3.8;;
12721;SDS011;6425;50.316;8.114;2023-09-30T16:54:00;8.6;;;4.1;;
12721;SDS011;6425;50.316;8.114;2023-09-30T16:57:00;8.6;;;4.1;;
12721;SDS011;6425;50.316;8.114;2023-09-30T17:00:00;10.7;;;4.3;;
12721;SDS011;6425;50.316;8.114;2023-09-30T17:03:00;9.4;;;4.4;;
12721;SDS011;6425;50.316;8.114;2023-09-30T17:06:00;9.4;;;4.4;;
12721;SDS011;6425;50.316;8.114;2023-09-30T17:09:00;11;;;4.7;;
12721;SDS011;6425;50.316;8.114;2023-09-30T17:12:00;11;;;4.7;;
12721;SDS011;6425;50.316;8.114;2023-09-30T17:15:01;12.6;;;4.5;;
12721;SDS011;6425;50.316;8.114;2023-09-30T17:18:00;11.7;;;4.7;;
12721;SDS011;6425;50.316;8.114;2023-09-30T17:21:00;11.7;;;4.7;;
12721;SDS011;6425;50.316;8.114;2023-09-30T17:24:00;9.6;;;4.4;;
12721;SDS011;6425;50.316;8.114;2023-09-30T17:27:00;9.6;;;4.4;;
12721;SDS011;6425;50.316;8.114;2023-09-30T17:30:00;10.5;;;4.6;;
12721;SDS011;6425;50.316;8.114;2023-09-30T17:33:00;18.6;;;5.3;;
12721;SDS011;6425;50.316;8.114;2023-09-30T17:36:00;18.6;;;5.3;;
12721;SDS011;6425;50.316;8.114;2023-09-30T17:39:00;11.2;;;4.9;;
12721;SDS011;6425;50.316;8.114;2023-09-30T17:42:00;11.2;;;4.9;;
12721;SDS011;6425;50.316;8.114;2023-09-30T17:45:00;12.6;;;5.3;;
12721;SDS011;6425;50.316;8.114;2023-09-30T17:48:00;9.5;;;5.5;;
12721;SDS011;6425;50.316;8.114;2023-09-30T17:51:00;9.5;;;5.5;;
12721;SDS011;6425;50.316;8.114;2023-09-30T17:54:00;12.9;;;5.8;;
12721;SDS011;6425;50.316;8.114;2023-09-30T17:57:00;12.9;;;5.8;;
12721;SDS011;6425;50.316;8.114;2023-09-30T18:00:00;9.8;;;5.4;;
12721;SDS011;6425;50.316;8.114;2023-09-30T18:03:00;8.3;;;4.5;;
12721;SDS011;6425;50.316;8.114;2023-09-30T18:06:04;8.3;;;4.5;;
12721;SDS011;6425;50.316;8.114;2023-09-30T18:09:00;9.1;;;5;;
12721;SDS011;6425;50.316;8.114;2023-09-30T18:12:00;9.1;;;5;;
12721;SDS011;6425;50.316;8.114;2023-09-30T18:15:00;18.6;;;9.3;;
12721;SDS011;6425;50.316;8.114;2023-09-30T18:18:00;11;;;5.6;;
12721;SDS011;6425;50.316;8.114;2023-09-30T18:21:00;11;;;5.6;;
12721;SDS011;6425;50.316;8.114;2023-09-30T18:24:00;11.6;;;6.6;;
12721;SDS011;6425;50.316;8.114;2023-09-30T18:27:00;11.6;;;6.6;;
12721;SDS011;6425;50.316;8.114;2023-09-30T18:30:01;13.5;;;6.3;;
12721;SDS011;6425;50.316;8.114;2023-09-30T18:33:00;11.2;;;6.2;;
12721;SDS011;6425;50.316;8.114;2023-09-30T18:36:00;11.2;;;6.2;;
12721;SDS011;6425;50.316;8.114;2023-09-30T18:39:00;8.2;;;5.5;;
12721;SDS011;6425;50.316;8.114;2023-09-30T18:42:00;9.1;;;5.2;;
12721;SDS011;6425;50.316;8.114;2023-09-30T18:45:00;9.1;;;5.2;;
12721;SDS011;6425;50.316;8.114;2023-09-30T18:48:00;9.1;;;5.1;;